createdAt,value
2023-05-23T00:07:20.008Z,99073.52
2023-05-23T00:18:09.603Z,99064.91
2023-05-23T00:29:18.471Z,99063.42
2023-05-23T00:40:32.991Z,99065.86
2023-05-23T00:51:42.875Z,99058.22
2023-05-23T01:02:08.583Z,99050.50
2023-05-23T01:12:55.164Z,99049.27
2023-05-23T01:24:26.549Z,99042.08
2023-05-23T01:34:57.089Z,99031.42
2023-05-23T01:45:22.456Z,99026.73
2023-05-23T01:55:49.658Z,99012.99
2023-05-23T02:06:21.470Z,99002.20
2023-05-23T02:16:49.128Z,99003.64
2023-05-23T02:28:18.715Z,98989.16
2023-05-23T02:39:00.184Z,98988.45
2023-05-23T02:50:18.605Z,98990.06
2023-05-23T03:01:07.603Z,98986.45
2023-05-23T03:12:13.858Z,98983.20
2023-05-23T03:34:33.645Z,99011.91
2023-05-23T03:45:29.736Z,99019.74
2023-05-23T03:56:09.009Z,99014.24
2023-05-23T04:06:45.811Z,99015.09
2023-05-23T04:17:32.019Z,99016.71
2023-05-23T04:28:50.851Z,99006.38
2023-05-23T04:39:19.837Z,98998.73
2023-05-23T04:50:38.093Z,98991.09
2023-05-23T05:01:29.910Z,98988.70
2023-05-23T05:12:18.493Z,98990.65
2023-05-23T05:22:51.598Z,98990.55
2023-05-23T05:33:36.810Z,98986.96
2023-05-23T05:44:26.715Z,98983.52
2023-05-23T05:54:51.992Z,98989.39
2023-05-23T06:05:20.651Z,98993.12
2023-05-23T06:16:28.972Z,98963.70
2023-05-23T06:27:07.830Z,98974.05
2023-05-23T06:37:46.055Z,98974.70
2023-05-23T06:48:14.512Z,98977.49
2023-05-23T06:58:40.366Z,98964.02
2023-05-23T07:09:05.206Z,98959.18
2023-05-23T07:19:34.039Z,98953.95
2023-05-23T07:30:45.429Z,98969.70
2023-05-23T07:41:14.327Z,98984.23
2023-05-23T07:51:47.133Z,98993.75
2023-05-23T08:02:32.002Z,98984.73
2023-05-23T08:13:29.923Z,98988.05
2023-05-23T08:24:19.063Z,98986.08
2023-05-23T08:34:47.526Z,98985.21
2023-05-23T08:45:23.789Z,98987.86
2023-05-23T08:55:56.827Z,98990.64
2023-05-23T09:06:23.581Z,98992.06
2023-05-23T09:16:49.730Z,98995.39
2023-05-23T09:27:34.029Z,98995.60
2023-05-23T09:38:29.956Z,98994.15
2023-05-23T09:49:18.904Z,98985.04
2023-05-23T09:59:58.807Z,98983.70
2023-05-23T10:10:46.911Z,98979.08
2023-05-23T10:21:21.956Z,98974.58
2023-05-23T10:32:08.058Z,98976.60
2023-05-23T10:42:43.805Z,98975.16
2023-05-23T10:54:01.763Z,98975.02
2023-05-23T11:27:54.511Z,98972.02
2023-05-23T11:38:39.746Z,98970.52
2023-05-23T11:49:12.143Z,98988.17
2023-05-23T12:00:22.157Z,98988.36
2023-05-23T12:11:06.581Z,98978.29
2023-05-23T12:22:22.856Z,98967.46
2023-05-23T12:32:52.001Z,98957.11
2023-05-23T12:43:20.908Z,98954.05
2023-05-23T12:54:46.929Z,98946.69
2023-05-23T13:05:27.961Z,98936.16
2023-05-23T13:15:53.131Z,98931.80
2023-05-23T13:26:22.530Z,98920.86
2023-05-23T13:37:04.404Z,98913.55
2023-05-23T13:47:34.009Z,98907.40
2023-05-23T13:58:10.575Z,98913.95
2023-05-23T14:08:41.687Z,98911.74
2023-05-23T14:19:10.437Z,98923.50
2023-05-23T14:30:18.029Z,98932.02
2023-05-23T14:41:05.361Z,98940.06
2023-05-23T14:52:14.615Z,98946.29
2023-05-23T15:03:17.863Z,98947.76
2023-05-23T15:14:43.776Z,98950.21
2023-05-23T15:25:12.527Z,98956.00
2023-05-23T15:36:13.551Z,98963.41
2023-05-23T15:47:36.019Z,98976.25
2023-05-23T15:59:04.874Z,98976.92
2023-05-23T16:10:03.952Z,98977.52
2023-05-23T16:31:37.117Z,98988.66
2023-05-23T16:43:06.620Z,98985.84
2023-05-23T16:53:58.590Z,98988.80
2023-05-23T17:04:39.980Z,99009.95
2023-05-23T17:15:13.818Z,99036.42
2023-05-23T17:25:44.365Z,99052.08
2023-05-23T17:36:35.447Z,99069.26
2023-05-23T17:47:50.970Z,99080.67
2023-05-23T17:58:27.176Z,99100.56
2023-05-23T18:09:42.730Z,99105.42
2023-05-23T18:20:09.067Z,99110.48
2023-05-23T18:30:34.308Z,99124.04
2023-05-23T18:40:59.962Z,99138.77
2023-05-23T18:51:53.994Z,99159.08
2023-05-23T19:03:23.365Z,99180.92
2023-05-23T19:14:11.977Z,99197.52
2023-05-23T19:24:43.800Z,99202.20
2023-05-23T19:35:37.574Z,99206.66
2023-05-23T19:46:32.998Z,99211.33
2023-05-23T19:57:05.629Z,99223.40
2023-05-23T20:08:08.512Z,99231.77
2023-05-23T20:19:25.189Z,99238.87
2023-05-23T21:14:02.270Z,99323.83
2023-05-23T21:24:57.289Z,99328.88
2023-05-23T21:35:22.770Z,99337.38
2023-05-23T21:46:03.275Z,99349.20
2023-05-23T21:57:01.064Z,99360.01
2023-05-23T22:07:29.665Z,99363.30
2023-05-23T22:18:09.985Z,99374.27
2023-05-23T22:28:55.440Z,99388.45
2023-05-23T22:39:40.652Z,99387.87
2023-05-23T22:50:27.377Z,99393.84
2023-05-23T23:01:04.447Z,99401.48
2023-05-23T23:12:09.889Z,99413.99
2023-05-23T23:22:40.522Z,99429.34
2023-05-23T23:33:12.201Z,99452.92
2023-05-23T23:43:57.968Z,99454.88
2023-05-23T23:54:22.167Z,99455.36
